Time;durP1;ratioP1;P1;durP2;ratioP2;P2;SDS_P1;SDS_P2;PMS_P1;PMS_P2;Temp;Humidity;BMP_temperature;BMP_pressure;BME280_temperature;BME280_humidity;BME280_pressure;Samples;Min_cycle;Max_cycle;Signal;HPM_P1;HPM_P2
2021/12/31 00:01:49;;;;;;;21.2;24.2;;;;;;;9;86.6;98710;;;;
2021/12/31 00:11:49;;;;;;;21.2;24.2;;;;;;;9.3;86.4;98720;;;;
2021/12/31 00:23:01;;;;;;;18.5;22.9;;;;;;;9.6;86.7;98720;;;;
2021/12/31 00:33:49;;;;;;;18.5;22.9;;;;;;;9.8;86.9;98720;;;;
2021/12/31 00:43:49;;;;;;;9.1;12.6;;;;;;;10;87;98730;;;;
2021/12/31 00:54:49;;;;;;;9.1;12.6;;;;;;;10.1;86.8;98740;;;;
2021/12/31 01:04:49;;;;;;;9.1;12.6;;;;;;;10.1;86.5;98740;;;;
2021/12/31 01:15:50;;;;;;;5.5;9;;;;;;;10.2;86.3;98740;;;;
2021/12/31 01:25:49;;;;;;;5.5;9;;;;;;;10.3;86.5;98740;;;;
2021/12/31 01:35:49;;;;;;;5.5;9;;;;;;;10.4;86.4;98750;;;;
2021/12/31 01:55:12;;;;;;;6.8;8.1;;;;;;;10.3;86.5;98770;;;;
2021/12/31 02:05:12;;;;;;;6.8;8.1;;;;;;;10.3;86.3;98780;;;;
2021/12/31 02:16:12;;;;;;;6.8;8.1;;;;;;;10.4;86.5;98770;;;;
2021/12/31 02:26:12;;;;;;;5.6;8.2;;;;;;;10.4;86.5;98770;;;;
2021/12/31 02:37:12;;;;;;;5.6;8.2;;;;;;;10.5;86.5;98760;;;;
2021/12/31 02:47:12;;;;;;;4.6;7.5;;;;;;;10.5;86.7;98770;;;;
2021/12/31 02:57:12;;;;;;;4.6;7.5;;;;;;;10.5;86.5;98780;;;;
2021/12/31 03:08:12;;;;;;;4.6;7.5;;;;;;;10.5;86.7;98770;;;;
2021/12/31 03:18:12;;;;;;;4.3;6.7;;;;;;;10.6;86.6;98780;;;;
2021/12/31 03:28:12;;;;;;;4.3;6.7;;;;;;;10.6;86.7;98780;;;;
2021/12/31 03:39:12;;;;;;;4.3;6.7;;;;;;;10.7;86.3;98780;;;;
2021/12/31 03:50:12;;;;;;;4.2;6.6;;;;;;;10.6;86.1;98780;;;;
2021/12/31 04:00:12;;;;;;;4.2;6.6;;;;;;;10.6;86.2;98780;;;;
2021/12/31 04:11:13;;;;;;;4.2;6.6;;;;;;;10.6;86.1;98790;;;;
2021/12/31 04:22:13;;;;;;;5.3;6.8;;;;;;;10.6;86.2;98800;;;;
2021/12/31 04:34:40;;;;;;;6.9;9.8;;;;;;;10.6;86.3;98800;;;;
2021/12/31 04:44:40;;;;;;;6.9;9.8;;;;;;;10.5;86.4;98810;;;;
2021/12/31 04:55:40;;;;;;;6.9;9.8;;;;;;;10.6;86.3;98810;;;;
2021/12/31 05:06:40;;;;;;;4.9;7.3;;;;;;;10.6;86.2;98800;;;;
2021/12/31 05:17:40;;;;;;;4.9;7.3;;;;;;;10.6;86.2;98800;;;;
2021/12/31 05:28:40;;;;;;;4.5;7.3;;;;;;;10.6;86;98780;;;;
2021/12/31 05:39:40;;;;;;;4.5;7.3;;;;;;;10.7;85.8;98800;;;;
2021/12/31 05:50:40;;;;;;;4.5;7.3;;;;;;;10.7;85.7;98790;;;;
2021/12/31 06:00:40;;;;;;;3.7;5.9;;;;;;;10.7;85.7;98800;;;;
2021/12/31 06:11:40;;;;;;;3.7;5.9;;;;;;;10.8;85.5;98790;;;;
2021/12/31 06:21:40;;;;;;;3.7;5.9;;;;;;;10.8;85.5;98820;;;;
2021/12/31 06:32:40;;;;;;;5.1;7.6;;;;;;;10.9;85;98830;;;;
2021/12/31 06:42:40;;;;;;;5.1;7.6;;;;;;;10.8;85.1;98830;;;;
2021/12/31 06:53:40;;;;;;;5.1;7.6;;;;;;;10.7;85.8;98830;;;;
2021/12/31 07:03:40;;;;;;;5.4;7.6;;;;;;;10.7;86;98830;;;;
2021/12/31 07:13:40;;;;;;;5.4;7.6;;;;;;;10.8;86.2;98830;;;;
2021/12/31 07:24:40;;;;;;;5.4;7.6;;;;;;;10.9;86.1;98830;;;;
2021/12/31 07:35:40;;;;;;;3.8;6.9;;;;;;;11.1;85.8;98850;;;;
2021/12/31 07:45:40;;;;;;;3.8;6.9;;;;;;;11.2;85.6;98850;;;;
2021/12/31 07:56:40;;;;;;;3.7;6.2;;;;;;;11.3;85;98860;;;;
2021/12/31 08:07:40;;;;;;;3.7;6.2;;;;;;;11.4;84.6;98850;;;;
2021/12/31 08:17:40;;;;;;;3.7;6.2;;;;;;;11.6;83.7;98860;;;;
2021/12/31 08:27:40;;;;;;;3.3;5.3;;;;;;;11.5;83.9;98880;;;;
2021/12/31 08:38:40;;;;;;;3.3;5.3;;;;;;;11.5;84.2;98880;;;;
2021/12/31 08:48:40;;;;;;;3.3;5.3;;;;;;;11.6;84.3;98900;;;;
2021/12/31 08:59:40;;;;;;;3;5.3;;;;;;;11.5;84.8;98900;;;;
2021/12/31 09:09:40;;;;;;;3;5.3;;;;;;;11.6;84.7;98900;;;;
2021/12/31 09:20:40;;;;;;;3;5.3;;;;;;;11.7;84.5;98890;;;;
2021/12/31 09:30:40;;;;;;;3.9;5.9;;;;;;;11.7;83.7;98890;;;;
2021/12/31 09:41:40;;;;;;;3.9;5.9;;;;;;;12;82.6;98890;;;;
2021/12/31 09:52:40;;;;;;;3.9;5.9;;;;;;;12;81.9;98900;;;;
2021/12/31 10:02:42;;;;;;;5.6;13;;;;;;;12;81.1;98890;;;;
2021/12/31 10:13:40;;;;;;;5.6;13;;;;;;;12.2;80.3;98880;;;;
2021/12/31 10:23:40;;;;;;;5.6;13;;;;;;;12.3;79.8;98890;;;;
2021/12/31 10:34:41;;;;;;;4.6;9.3;;;;;;;12.4;79;98880;;;;
2021/12/31 10:44:40;;;;;;;4.6;9.3;;;;;;;12.8;77.6;98870;;;;
2021/12/31 10:55:40;;;;;;;4.8;7.4;;;;;;;13;76.9;98850;;;;
2021/12/31 11:05:40;;;;;;;4.8;7.4;;;;;;;13.1;76.1;98850;;;;
2021/12/31 11:16:40;;;;;;;4.8;7.4;;;;;;;13;76;98850;;;;
2021/12/31 11:27:44;;;;;;;3.9;7.3;;;;;;;13;75.5;98840;;;;
2021/12/31 11:37:40;;;;;;;3.9;7.3;;;;;;;13.2;74.9;98830;;;;
2021/12/31 11:48:40;;;;;;;3.9;7.3;;;;;;;13.1;75;98820;;;;
2021/12/31 11:59:40;;;;;;;4;6.8;;;;;;;13;75.2;98800;;;;
2021/12/31 12:10:40;;;;;;;4;6.8;;;;;;;13.1;74.3;98800;;;;
2021/12/31 12:21:40;;;;;;;4;6.8;;;;;;;13;74.3;98780;;;;
2021/12/31 12:31:45;;;;;;;3.8;6.7;;;;;;;13;74.1;98790;;;;
2021/12/31 12:42:40;;;;;;;3.8;6.7;;;;;;;13.1;73.9;98780;;;;
2021/12/31 12:53:40;;;;;;;3.8;6.7;;;;;;;13.1;73.9;98790;;;;
2021/12/31 13:03:40;;;;;;;5.1;7.7;;;;;;;13.1;74.1;98780;;;;
2021/12/31 13:13:40;;;;;;;5.1;7.7;;;;;;;13;74.2;98770;;;;
2021/12/31 13:24:40;;;;;;;5.1;7.7;;;;;;;13.1;73.8;98760;;;;
2021/12/31 13:35:40;;;;;;;5.6;8.9;;;;;;;13;73.8;98770;;;;
2021/12/31 13:46:40;;;;;;;5.6;8.9;;;;;;;13.2;73.1;98770;;;;
2021/12/31 13:56:40;;;;;;;5.2;7.7;;;;;;;13.2;72.7;98760;;;;
2021/12/31 14:07:42;;;;;;;5.2;7.7;;;;;;;13.1;72.6;98780;;;;
2021/12/31 14:17:40;;;;;;;5.2;7.7;;;;;;;12.9;73;98780;;;;
2021/12/31 14:28:40;;;;;;;5.3;8.5;;;;;;;12.8;73.3;98780;;;;
2021/12/31 14:39:50;;;;;;;5.3;8.5;;;;;;;12.6;73.4;98780;;;;
2021/12/31 14:49:40;;;;;;;5.3;8.5;;;;;;;12.5;73.5;98790;;;;
2021/12/31 15:00:40;;;;;;;6.9;10.5;;;;;;;12.5;73.4;98790;;;;
2021/12/31 15:10:42;;;;;;;6.9;10.5;;;;;;;12.4;73.4;98780;;;;
2021/12/31 15:20:40;;;;;;;6.9;10.5;;;;;;;12.4;73.5;98770;;;;
2021/12/31 15:30:42;;;;;;;9.2;11.6;;;;;;;12.4;73.4;98770;;;;
2021/12/31 15:41:40;;;;;;;9.2;11.6;;;;;;;12.4;73.2;98780;;;;
2021/12/31 15:52:40;;;;;;;9.2;11.6;;;;;;;12.4;73.1;98780;;;;
2021/12/31 16:02:40;;;;;;;8.6;12.7;;;;;;;12.4;72.9;98770;;;;
2021/12/31 16:13:40;;;;;;;8.6;12.7;;;;;;;12.3;73.2;98770;;;;
2021/12/31 16:24:40;;;;;;;8.6;12.7;;;;;;;12.2;73.1;98750;;;;
2021/12/31 16:34:41;;;;;;;11.6;16.6;;;;;;;12.1;72.7;98740;;;;
2021/12/31 16:45:40;;;;;;;11.6;16.6;;;;;;;12;72.5;98730;;;;
2021/12/31 16:55:40;;;;;;;15.6;22.2;;;;;;;12;72.3;98730;;;;
2021/12/31 17:06:40;;;;;;;15.6;22.2;;;;;;;12;72;98730;;;;
2021/12/31 17:16:40;;;;;;;15.6;22.2;;;;;;;11.9;72.3;98730;;;;
2021/12/31 17:27:40;;;;;;;17.6;20.4;;;;;;;11.9;71.8;98720;;;;
2021/12/31 17:38:40;;;;;;;17.6;20.4;;;;;;;11.9;71.3;98690;;;;
2021/12/31 17:48:41;;;;;;;17.6;20.4;;;;;;;11.9;71.4;98700;;;;
2021/12/31 17:59:41;;;;;;;12;17.5;;;;;;;11.8;71.6;98690;;;;
2021/12/31 18:09:40;;;;;;;12;17.5;;;;;;;11.8;71.8;98710;;;;
2021/12/31 18:19:40;;;;;;;12;17.5;;;;;;;11.7;72.1;98700;;;;
2021/12/31 18:29:40;;;;;;;20.6;25;;;;;;;11.7;72.3;98700;;;;
2021/12/31 18:40:40;;;;;;;20.6;25;;;;;;;11.6;72.6;98690;;;;
2021/12/31 18:50:44;;;;;;;20.6;25;;;;;;;11.6;72.5;98680;;;;
2021/12/31 19:01:40;;;;;;;13.5;20.5;;;;;;;11.6;72.4;98660;;;;
2021/12/31 19:11:40;;;;;;;13.5;20.5;;;;;;;11.7;71.9;98670;;;;
2021/12/31 19:21:41;;;;;;;13.5;20.5;;;;;;;11.6;72.1;98670;;;;
2021/12/31 19:32:40;;;;;;;12.4;16.3;;;;;;;11.7;71.9;98660;;;;
2021/12/31 19:43:40;;;;;;;12.4;16.3;;;;;;;11.6;72;98660;;;;
2021/12/31 19:53:40;;;;;;;12.4;16.3;;;;;;;11.7;71.6;98660;;;;
2021/12/31 20:04:40;;;;;;;11.6;18.5;;;;;;;11.6;71.8;98660;;;;
2021/12/31 20:14:40;;;;;;;11.6;18.5;;;;;;;11.6;71.9;98670;;;;
2021/12/31 20:25:41;;;;;;;13.2;18.7;;;;;;;11.6;71.7;98670;;;;
2021/12/31 20:35:40;;;;;;;13.2;18.7;;;;;;;11.7;71.4;98670;;;;
2021/12/31 20:46:40;;;;;;;13.2;18.7;;;;;;;11.7;70.9;98670;;;;
2021/12/31 20:57:40;;;;;;;9.1;11.9;;;;;;;11.8;70.7;98660;;;;
2021/12/31 21:07:40;;;;;;;9.1;11.9;;;;;;;11.8;70.3;98650;;;;
2021/12/31 21:17:40;;;;;;;9.1;11.9;;;;;;;11.8;70.1;98650;;;;
2021/12/31 21:28:40;;;;;;;8.6;11.1;;;;;;;11.9;69.7;98640;;;;
2021/12/31 21:38:40;;;;;;;8.6;11.1;;;;;;;12;69.3;98650;;;;
2021/12/31 21:48:40;;;;;;;8.6;11.1;;;;;;;12.1;68.9;98650;;;;
2021/12/31 21:58:40;;;;;;;4.9;8;;;;;;;12.2;68.7;98650;;;;
2021/12/31 22:09:41;;;;;;;4.9;8;;;;;;;12.3;68.3;98650;;;;
2021/12/31 22:19:40;;;;;;;4.9;8;;;;;;;12.3;68.9;98660;;;;
2021/12/31 22:29:40;;;;;;;4.2;7.1;;;;;;;12.1;72.2;98670;;;;
2021/12/31 22:39:40;;;;;;;4.2;7.1;;;;;;;11.9;73.3;98670;;;;
2021/12/31 22:50:41;;;;;;;4.2;7.1;;;;;;;11.7;74.6;98670;;;;
2021/12/31 23:00:40;;;;;;;5.6;8.6;;;;;;;11.5;76.3;98670;;;;
2021/12/31 23:11:41;;;;;;;5.6;8.6;;;;;;;11.4;77;98670;;;;
2021/12/31 23:22:40;;;;;;;5.6;8.6;;;;;;;11.2;78.2;98680;;;;
2021/12/31 23:32:40;;;;;;;12.1;15.8;;;;;;;11.2;78.9;98680;;;;
2021/12/31 23:42:43;;;;;;;12.1;15.8;;;;;;;11;79.6;98670;;;;
2021/12/31 23:52:40;;;;;;;12.1;15.8;;;;;;;10.9;79.9;98680;;;;
